Portada
METAR-TAF:

METAR-TAF

Aeroports :

Horn Island, Austràlia

latitud: 10-35-11S, longitud: 142-07-24E, altitud: 13 m

Observació

L'informe es va fer fa 44 minuts, a les 18:30 UTC
Vent 14 kt del Est/Sud-Est
Temperatura 24°C
Humitat 74%
Pressió 1013 hPa
Visibilitat 10 km o més
Cel ennuvolat a una alçada de 2800 ft

METAR: YHID 141830Z AUTO 12014KT 9999 // BKN028 24/19 Q1013

Hora: 05:14 (19:14 UTC)

Pronòstic

L'informe es va fer fa 2 hores i 1 minuts, a les 17:13 UTC
Pronòstic vàlid del 14 a les 18 UTC al 15 a les 18 UTC
Vent 15 kt del Est/Sud-Est
Visibilitat 10 km o més
Núvols disperses a una alçada de 2500 ft
A partir de les 14 a les 2300 UTC
Vent 20 kt del Est/Sud-Est
Visibilitat 10 km o més
Núvols disperses a una alçada de 3000 ft
A partir de les 15 a les 0800 UTC
Vent 14 kt del Est/Sud-Est
Visibilitat 10 km o més
Núvols disperses a una alçada de 2500 ft

TAF: YHID 141713Z 1418/1518 12015KT 9999 SCT025 FM142300 11020KT 9999 SCT030 FM150800 12014KT 9999 SCT025

Observacions i pronòstics meteorològics de més de 4000 aeroports (METAR i TAF).

Les estacions disponibles són els punts grocs i vermells al mapa.

Posi el ratolí al punt desitjat per veure el nom de l'estació.

Feu clic per veure les observacions i els pronòstics meteorològics.

Per canviar el mapa: feu clic els botons verds amb una creu de color negre per apropar; al botó verd amb un guió per allunyar la imatge; o en les fletxes verdes per a mapes adjacents.


METAR-TAF: